Time;durP1;ratioP1;P1;durP2;ratioP2;P2;SDS_P1;SDS_P2;PMS_P1;PMS_P2;Temp;Humidity;BMP_temperature;BMP_pressure;BME280_temperature;BME280_humidity;BME280_pressure;Samples;Min_cycle;Max_cycle;Signal;HPM_P1;HPM_P2
2022/10/17 00:01:06;;;;;;;4.85;2.20;;;;;;;14.28;88.59;101644.59;5017877;28;96827;-32
2022/10/17 00:03:32;;;;;;;4.72;2.38;;;;;;;14.30;88.40;101639.94;5017603;28;98143;-30
2022/10/17 00:05:58;;;;;;;6.80;2.35;;;;;;;14.29;88.07;101634.56;5016125;28;100738;-31
2022/10/17 00:08:23;;;;;;;4.95;2.55;;;;;;;14.26;88.32;101632.06;5017559;28;96743;-30
2022/10/17 00:11:01;;;;;;;4.65;2.30;;;;;;;14.27;88.44;101622.88;5018183;28;96755;-31
2022/10/17 00:13:27;;;;;;;5.80;2.90;;;;;;;14.26;88.28;101621.16;5015812;28;101299;-30
2022/10/17 00:15:52;;;;;;;7.00;2.45;;;;;;;14.23;88.67;101619.50;5015777;28;100939;-31
2022/10/17 00:18:17;;;;;;;6.07;2.78;;;;;;;14.21;88.48;101629.63;5017157;28;96489;-30
2022/10/17 00:20:43;;;;;;;4.30;2.60;;;;;;;14.23;88.57;101628.53;5017464;28;96892;-31
2022/10/17 00:23:08;;;;;;;5.30;2.67;;;;;;;14.20;89.10;101630.56;5017365;28;98009;-31
2022/10/17 00:25:33;;;;;;;6.35;3.03;;;;;;;14.19;88.93;101628.84;5017102;28;97337;-30
2022/10/17 00:27:59;;;;;;;5.93;2.88;;;;;;;14.20;88.94;101622.41;5017451;28;96639;-32
2022/10/17 00:30:24;;;;;;;7.80;2.78;;;;;;;14.16;89.20;101609.97;5017491;28;96851;-30
2022/10/17 00:32:50;;;;;;;4.70;2.80;;;;;;;14.13;89.51;101596.53;5016727;28;98928;-31
2022/10/17 00:35:15;;;;;;;5.72;2.63;;;;;;;14.10;89.86;101604.91;5017169;28;99251;-31
2022/10/17 00:37:40;;;;;;;6.93;2.88;;;;;;;14.10;89.52;101610.34;5016379;28;96497;-30
2022/10/17 00:40:06;;;;;;;8.73;2.92;;;;;;;14.09;89.30;101603.16;5017225;28;96896;-30
2022/10/17 00:42:32;;;;;;;8.48;3.85;;;;;;;14.07;89.17;101599.66;5015027;28;101282;-30
2022/10/17 00:45:24;;;;;;;7.93;3.03;;;;;;;14.03;89.39;101602.56;5016673;28;97947;-30
2022/10/17 00:47:57;;;;;;;;;;;;;;;14.07;89.60;101607.84;5016939;28;96545;-31
2022/10/17 00:50:23;;;;;;;5.20;2.55;;;;;;;14.03;89.65;101613.47;5017112;28;96786;-31
2022/10/17 00:52:50;;;;;;;8.50;2.92;;;;;;;14.00;89.71;101610.94;5015055;28;100954;-29
2022/10/17 00:55:30;;;;;;;7.15;3.15;;;;;;;14.01;89.41;101609.09;5015163;28;100929;-30
2022/10/17 00:57:59;;;;;;;7.70;3.05;;;;;;;13.99;89.46;101616.47;5017064;28;96593;-30
2022/10/17 01:00:24;;;;;;;9.98;3.60;;;;;;;13.99;89.43;101613.75;5015790;28;97178;-31
2022/10/17 01:02:50;;;;;;;5.63;2.97;;;;;;;14.02;89.68;101616.31;5016582;28;97645;-30
2022/10/17 01:05:17;;;;;;;5.43;3.33;;;;;;;13.99;89.27;101608.31;5016469;28;98561;-30
2022/10/17 01:07:44;;;;;;;8.20;3.50;;;;;;;13.98;89.48;101599.25;5016316;28;96612;-33
2022/10/17 01:10:11;;;;;;;6.80;3.10;;;;;;;14.00;89.30;101608.22;5015378;28;96923;-30
2022/10/17 01:12:49;;;;;;;7.00;3.15;;;;;;;14.01;89.49;101604.53;5031579;28;101077;-29
2022/10/17 01:15:52;;;;;;;4.80;3.05;;;;;;;14.01;89.13;101601.81;5014769;28;100858;-31
2022/10/17 01:18:20;;;;;;;7.03;2.97;;;;;;;13.99;89.70;101598.31;5016536;28;96515;-30
2022/10/17 01:20:48;;;;;;;6.00;3.33;;;;;;;13.99;89.82;101597.41;5016759;28;96842;-30
2022/10/17 01:23:29;;;;;;;4.97;2.85;;;;;;;13.98;89.80;101587.50;5016220;28;98145;-30
2022/10/17 01:26:24;;;;;;;6.68;3.10;;;;;;;13.97;89.38;101583.03;5015034;28;101091;-33
2022/10/17 01:29:35;;;;;;;6.10;3.00;;;;;;;13.94;90.25;101588.66;5005012;28;96940;-31
2022/10/17 01:32:16;;;;;;;5.50;2.75;;;;;;;13.91;90.83;101578.84;5016511;28;96612;-30
2022/10/17 01:34:58;;;;;;;6.32;3.53;;;;;;;13.96;90.17;101582.13;5014195;28;100750;-29
2022/10/17 01:37:32;;;;;;;8.03;3.17;;;;;;;13.96;90.12;101589.44;5014624;28;100692;-30
2022/10/17 01:39:58;;;;;;;10.52;2.88;;;;;;;13.97;89.62;101594.81;5015111;28;96548;-30
2022/10/17 01:42:32;;;;;;;7.55;3.30;;;;;;;13.95;89.63;101587.69;5016720;28;96878;-32
2022/10/17 01:45:11;;;;;;;6.00;3.53;;;;;;;13.98;89.81;101584.78;5014371;28;100926;-29
2022/10/17 01:47:37;;;;;;;6.05;3.20;;;;;;;13.98;89.69;101569.28;5013904;28;100952;-30
2022/10/17 01:50:14;;;;;;;6.70;3.28;;;;;;;13.99;89.78;101564.72;5014720;28;96709;-30
2022/10/17 01:52:46;;;;;;;6.32;3.35;;;;;;;13.95;89.85;101558.59;5015055;28;96868;-30
2022/10/17 01:55:24;;;;;;;6.45;3.10;;;;;;;13.95;89.80;101557.75;5014183;28;100825;-30
2022/10/17 01:57:54;;;;;;;6.72;3.15;;;;;;;13.94;89.73;101562.31;5015979;28;97341;-30
2022/10/17 02:00:25;;;;;;;5.60;3.40;;;;;;;13.98;89.72;101560.25;5014015;28;96645;-30
2022/10/17 02:03:05;;;;;;;5.45;3.00;;;;;;;13.97;89.95;101558.53;5014541;28;96888;-30
2022/10/17 02:05:35;;;;;;;6.93;3.30;;;;;;;13.98;89.71;101552.09;5014303;28;101000;-30
2022/10/17 02:08:00;;;;;;;5.47;3.15;;;;;;;13.97;89.59;101548.50;5015376;28;99185;-30
2022/10/17 02:10:38;;;;;;;8.10;4.07;;;;;;;13.99;89.76;101546.56;5015499;28;98425;-30
2022/10/17 02:13:19;;;;;;;5.25;3.13;;;;;;;14.00;89.52;101544.69;5015831;28;96600;-32
2022/10/17 02:16:03;;;;;;;5.63;2.78;;;;;;;14.01;89.55;101550.06;5014017;28;100900;-30
2022/10/17 02:18:51;;;;;;;4.40;2.95;;;;;;;14.01;89.36;101546.44;5016006;28;97458;-30
2022/10/17 02:21:26;;;;;;;5.80;3.03;;;;;;;13.99;89.74;101534.75;5014353;28;96806;-32
2022/10/17 02:24:32;;;;;;;5.53;2.90;;;;;;;14.02;89.46;101532.72;5015732;28;96851;-31
2022/10/17 02:27:07;;;;;;;6.80;3.33;;;;;;;14.01;89.52;101536.44;5014904;28;98003;-30
2022/10/17 02:29:46;;;;;;;7.93;3.95;;;;;;;14.02;89.68;101546.34;5013794;28;100782;-31
2022/10/17 02:32:20;;;;;;;7.10;3.03;;;;;;;14.03;90.54;101547.22;5014237;28;96669;-30
2022/10/17 02:34:50;;;;;;;7.68;3.67;;;;;;;14.05;90.49;101541.66;5013846;28;96695;-30
2022/10/17 02:37:23;;;;;;;9.18;3.80;;;;;;;14.06;90.46;101541.56;5013795;28;102520;-31
2022/10/17 02:39:50;;;;;;;6.32;3.15;;;;;;;14.09;90.77;101544.09;5030516;28;100967;-30
2022/10/17 02:42:16;;;;;;;8.90;4.35;;;;;;;14.10;91.03;101534.94;5013929;28;96558;-30
2022/10/17 02:44:44;;;;;;;6.65;3.03;;;;;;;14.11;92.35;101535.81;5014132;28;96889;-30
2022/10/17 02:47:19;;;;;;;8.88;3.58;;;;;;;14.15;92.94;101542.81;5012997;28;99172;-31
2022/10/17 02:49:50;;;;;;;6.60;3.28;;;;;;;14.17;93.61;101543.59;5014751;28;99192;-31
2022/10/17 02:52:26;;;;;;;7.10;3.55;;;;;;;14.24;93.50;101547.66;5013369;28;96771;-30
2022/10/17 02:55:21;;;;;;;10.02;3.33;;;;;;;14.30;93.21;101557.28;5013826;28;96762;-30
2022/10/17 02:57:59;;;;;;;7.90;3.30;;;;;;;14.32;92.50;101548.03;5013177;28;100799;-29
2022/10/17 03:00:25;;;;;;;5.40;3.08;;;;;;;14.36;93.67;101549.56;5014517;28;97917;-30
2022/10/17 03:02:52;;;;;;;5.82;3.05;;;;;;;14.39;93.99;101552.09;5015041;28;96632;-30
2022/10/17 03:05:22;;;;;;;6.28;3.45;;;;;;;14.43;94.25;101559.09;5015050;28;96785;-30
2022/10/17 03:07:48;;;;;;;6.60;3.55;;;;;;;14.46;92.85;101558.00;5013227;28;100783;-30
2022/10/17 03:10:14;;;;;;;5.72;3.10;;;;;;;14.51;93.82;101565.88;5014927;28;97883;-30
2022/10/17 03:12:40;;;;;;;7.32;3.55;;;;;;;14.53;93.17;101556.63;5013482;28;96599;-31
2022/10/17 03:15:06;;;;;;;9.45;3.67;;;;;;;14.55;93.67;101559.28;5014806;28;96801;-30
2022/10/17 03:17:32;;;;;;;9.25;3.33;;;;;;;14.55;94.28;101554.72;5013952;28;99538;-30
2022/10/17 03:19:57;;;;;;;6.38;3.33;;;;;;;14.58;93.69;101556.34;5014692;28;97886;-30
2022/10/17 03:22:23;;;;;;;6.63;3.25;;;;;;;14.62;93.93;101564.22;5014935;28;96528;-31
2022/10/17 03:24:48;;;;;;;7.03;3.22;;;;;;;14.65;94.93;101574.91;5014700;28;96779;-30
2022/10/17 03:27:13;;;;;;;7.57;3.80;;;;;;;14.69;94.64;101574.72;5014319;28;108034;-30
2022/10/17 03:29:38;;;;;;;9.48;3.30;;;;;;;14.69;93.99;101561.09;5014351;28;99108;-30
2022/10/17 03:32:04;;;;;;;9.02;3.63;;;;;;;14.71;94.24;101565.47;5014790;28;97043;-31
2022/10/17 03:34:29;;;;;;;9.50;3.35;;;;;;;14.72;95.07;101567.19;5014837;28;96935;-30
2022/10/17 03:36:54;;;;;;;6.88;3.17;;;;;;;14.70;94.33;101560.97;5014266;28;104161;-30
2022/10/17 03:39:20;;;;;;;10.07;3.45;;;;;;;14.70;94.13;101557.38;5014634;28;97675;-30
2022/10/17 03:41:45;;;;;;;10.68;3.30;;;;;;;14.72;94.21;101564.47;5014045;28;96534;-30
2022/10/17 03:44:11;;;;;;;8.63;4.10;;;;;;;14.73;94.14;101566.25;5014221;28;96928;-30
2022/10/17 03:46:36;;;;;;;6.43;3.38;;;;;;;14.72;93.91;101561.75;5014299;28;97377;-31
2022/10/17 03:49:01;;;;;;;6.70;3.38;;;;;;;14.71;93.39;101557.28;5013533;28;101645;-30
2022/10/17 03:51:27;;;;;;;5.93;3.10;;;;;;;14.72;94.52;101563.59;5014417;28;96460;-30
2022/10/17 03:53:52;;;;;;;8.38;3.42;;;;;;;14.73;94.52;101573.53;5014156;28;96844;-30
2022/10/17 03:56:20;;;;;;;7.28;3.50;;;;;;;14.74;95.39;101584.34;5013941;28;97969;-31
2022/10/17 03:58:46;;;;;;;6.55;3.80;;;;;;;14.77;95.40;101584.13;5012942;28;100917;-29
2022/10/17 04:01:13;;;;;;;9.90;4.03;;;;;;;14.81;95.98;101582.94;5012905;28;96621;-30
2022/10/17 04:03:39;;;;;;;8.65;3.90;;;;;;;14.85;96.76;101570.00;5012841;28;96846;-30
2022/10/17 04:06:05;;;;;;;9.45;3.80;;;;;;;14.91;96.59;101575.00;5013539;28;97352;-30
2022/10/17 04:08:31;;;;;;;6.05;3.67;;;;;;;14.96;96.24;101577.44;5012327;28;100956;-31
2022/10/17 04:11:01;;;;;;;6.07;3.30;;;;;;;15.01;96.00;101583.44;5029763;28;96524;-30
2022/10/17 04:13:27;;;;;;;6.93;3.70;;;;;;;15.04;95.68;101589.56;5015181;28;96802;-30
2022/10/17 04:15:58;;;;;;;6.85;3.70;;;;;;;15.06;96.92;101578.53;5017238;28;97984;-30
2022/10/17 04:18:24;;;;;;;7.50;3.63;;;;;;;15.08;95.93;101582.03;5017536;28;96979;-31
2022/10/17 04:20:50;;;;;;;10.40;4.07;;;;;;;15.10;95.44;101582.81;5017481;28;96513;-31
2022/10/17 04:23:15;;;;;;;9.35;3.38;;;;;;;15.17;95.30;101592.31;5017643;28;96804;-30
2022/10/17 04:25:40;;;;;;;9.75;3.92;;;;;;;15.21;95.06;101591.16;5017111;28;98348;-29
2022/10/17 04:28:06;;;;;;;11.88;4.40;;;;;;;15.23;95.35;101593.75;5017312;28;97854;-30
2022/10/17 04:30:31;;;;;;;7.75;4.07;;;;;;;15.26;95.60;101594.41;5017111;28;96864;-30
2022/10/17 04:32:56;;;;;;;6.93;3.28;;;;;;;15.29;95.49;101596.94;5017711;28;96813;-30
2022/10/17 04:35:22;;;;;;;5.55;3.40;;;;;;;15.31;95.07;101599.56;5016943;28;99490;-30
2022/10/17 04:37:47;;;;;;;8.68;4.18;;;;;;;15.34;95.58;101596.59;5016705;28;97788;-30
2022/10/17 04:40:13;;;;;;;11.68;3.92;;;;;;;15.37;96.03;101599.13;5017289;28;96682;-31
2022/10/17 04:42:38;;;;;;;9.70;4.03;;;;;;;15.39;94.91;101601.75;5017012;28;96482;-30
2022/10/17 04:45:04;;;;;;;13.63;4.60;;;;;;;15.38;94.94;101602.75;5016579;28;99227;-33
2022/10/17 04:47:30;;;;;;;14.50;4.18;;;;;;;15.42;95.35;101612.44;5015222;28;100915;-30
2022/10/17 04:49:55;;;;;;;7.47;3.83;;;;;;;15.42;95.25;101612.44;5016554;28;103546;-31
2022/10/17 04:52:20;;;;;;;9.15;4.32;;;;;;;15.44;94.99;101602.28;5015531;28;96882;-30
2022/10/17 04:54:46;;;;;;;12.32;4.00;;;;;;;15.46;94.82;101605.81;5016227;28;97931;-30
2022/10/17 04:57:11;;;;;;;10.40;4.30;;;;;;;15.45;95.02;101604.06;5016386;28;99671;-30
2022/10/17 04:59:36;;;;;;;7.43;3.75;;;;;;;15.47;96.11;101610.31;5015491;28;96624;-30
2022/10/17 05:02:02;;;;;;;8.85;4.03;;;;;;;15.47;95.25;101596.66;5016748;28;98072;-30
2022/10/17 05:04:27;;;;;;;8.75;4.45;;;;;;;15.50;95.19;101601.88;5016703;28;97904;-30
2022/10/17 05:06:52;;;;;;;10.18;4.43;;;;;;;15.54;95.91;101605.25;5016611;28;99554;-30
2022/10/17 05:09:18;;;;;;;15.15;4.80;;;;;;;15.54;95.22;101608.88;5017000;28;96510;-30
2022/10/17 05:11:43;;;;;;;14.40;4.35;;;;;;;15.56;95.28;101615.09;5017216;28;96799;-29
2022/10/17 05:14:08;;;;;;;9.90;4.18;;;;;;;15.58;94.93;101621.31;5015900;28;110573;-30
2022/10/17 05:16:34;;;;;;;9.68;4.30;;;;;;;15.59;94.93;101620.34;5016567;28;97631;-30
2022/10/17 05:19:00;;;;;;;10.45;4.05;;;;;;;15.63;96.00;101624.59;5014783;28;96594;-30
2022/10/17 05:21:27;;;;;;;8.88;3.67;;;;;;;15.65;95.71;101611.72;5016159;28;96917;-29
2022/10/17 05:23:53;;;;;;;7.47;3.83;;;;;;;15.65;95.22;101619.91;5014371;28;100824;-30
2022/10/17 05:26:19;;;;;;;9.68;4.43;;;;;;;15.63;95.96;101610.94;5016350;28;97977;-31
2022/10/17 05:28:45;;;;;;;12.07;4.10;;;;;;;15.65;95.70;101619.91;5015125;28;96609;-30
2022/10/17 05:31:10;;;;;;;9.25;4.40;;;;;;;15.63;95.13;101610.94;5016620;28;96777;-30
2022/10/17 05:33:37;;;;;;;12.05;4.95;;;;;;;15.64;95.42;101611.84;5016114;28;97934;-30
2022/10/17 05:36:03;;;;;;;10.10;3.80;;;;;;;15.64;95.05;101603.66;5016637;28;97246;-30
2022/10/17 05:38:29;;;;;;;12.02;4.38;;;;;;;15.63;95.55;101616.41;5014843;28;96581;-32
2022/10/17 05:41:02;;;;;;;10.15;4.32;;;;;;;15.64;95.01;101612.72;5016445;28;96789;-30
2022/10/17 05:43:27;;;;;;;12.45;4.90;;;;;;;15.64;95.52;101614.56;5014158;28;101124;-30
2022/10/17 05:45:53;;;;;;;12.50;5.35;;;;;;;15.65;95.88;101627.22;5015873;28;97384;-32
2022/10/17 05:48:20;;;;;;;9.13;4.32;;;;;;;15.66;95.18;101628.97;5015816;28;96842;-30
2022/10/17 05:50:45;;;;;;;17.48;5.53;;;;;;;15.67;95.70;101628.00;5014591;28;96990;-30
2022/10/17 05:53:11;;;;;;;12.32;4.07;;;;;;;15.68;96.06;101616.97;5015590;28;98733;-32
2022/10/17 05:55:36;;;;;;;8.80;4.03;;;;;;;15.69;95.84;101607.78;5014258;28;101453;-30
2022/10/17 05:58:02;;;;;;;12.27;4.50;;;;;;;15.66;96.07;101610.75;5016134;28;96667;-31
2022/10/17 06:00:28;;;;;;;9.43;4.53;;;;;;;15.71;96.08;101619.50;5031989;28;96856;-30
2022/10/17 06:02:53;;;;;;;11.43;4.88;;;;;;;15.71;95.96;101608.59;5015380;28;99719;-30
2022/10/17 06:05:19;;;;;;;11.48;5.22;;;;;;;15.75;96.04;101616.56;5015301;28;103998;-30
2022/10/17 06:07:44;;;;;;;8.57;4.47;;;;;;;15.75;96.10;101628.34;5013946;28;96633;-30
2022/10/17 06:10:11;;;;;;;12.07;4.70;;;;;;;15.74;95.75;101615.69;5014375;28;96903;-30
2022/10/17 06:12:37;;;;;;;11.77;5.47;;;;;;;15.79;95.70;101629.03;5015088;28;99453;-31
2022/10/17 06:15:03;;;;;;;12.05;5.18;;;;;;;15.79;96.44;101638.09;5013701;28;101156;-30
2022/10/17 06:17:29;;;;;;;13.57;5.18;;;;;;;15.83;95.75;101641.50;5015879;28;96739;-30
2022/10/17 06:19:54;;;;;;;9.63;4.15;;;;;;;15.83;95.79;101636.91;5015585;28;96870;-30
2022/10/17 06:22:20;;;;;;;13.35;5.38;;;;;;;15.85;95.71;101634.03;5015418;28;98027;-30
2022/10/17 06:24:45;;;;;;;15.77;5.15;;;;;;;15.87;95.39;101637.53;5015453;28;98592;-30
2022/10/17 06:27:10;;;;;;;11.02;4.88;;;;;;;15.86;95.36;101653.06;5015587;28;96737;-30
2022/10/17 06:29:36;;;;;;;15.30;5.70;;;;;;;15.88;95.60;101663.88;5015534;28;96826;-30
2022/10/17 06:32:02;;;;;;;10.38;4.78;;;;;;;15.86;95.45;101665.84;5014902;28;97419;-30
2022/10/17 06:34:27;;;;;;;15.65;5.38;;;;;;;15.88;95.69;101675.69;5014372;28;97274;-31
2022/10/17 06:36:52;;;;;;;20.95;5.97;;;;;;;15.90;95.40;101681.06;5014857;28;96723;-29
2022/10/17 06:39:18;;;;;;;17.95;5.70;;;;;;;15.90;95.57;101670.13;5015311;28;96865;-30
2022/10/17 06:41:43;;;;;;;10.60;5.18;;;;;;;15.90;95.75;101675.59;5015028;28;97903;-30
2022/10/17 06:44:12;;;;;;;11.65;5.45;;;;;;;15.91;95.87;101664.53;5014815;28;99151;-30
2022/10/17 06:46:39;;;;;;;12.68;5.40;;;;;;;15.93;96.12;101678.97;5013456;28;96622;-30
2022/10/17 06:49:06;;;;;;;14.82;5.75;;;;;;;15.96;95.80;101686.06;5013869;28;96964;-30
2022/10/17 06:51:35;;;;;;;14.77;5.03;;;;;;;15.97;96.33;101682.38;5030158;28;100929;-30
2022/10/17 06:54:00;;;;;;;14.90;4.50;;;;;;;16.01;95.91;101678.41;5013360;28;101240;-30
2022/10/17 06:56:25;;;;;;;10.57;4.72;;;;;;;16.03;96.03;101681.91;5014595;28;96598;-32
2022/10/17 06:58:51;;;;;;;18.73;4.97;;;;;;;16.07;95.88;101686.19;5014518;28;103381;-31
2022/10/17 07:01:17;;;;;;;20.02;4.85;;;;;;;16.08;96.15;101708.91;5014708;28;97865;-30
2022/10/17 07:03:45;;;;;;;14.60;5.53;;;;;;;16.10;96.00;101720.63;5014763;28;97279;-30
2022/10/17 07:06:10;;;;;;;15.18;5.43;;;;;;;16.09;96.33;101733.41;5014831;28;96528;-30
2022/10/17 07:08:36;;;;;;;14.05;5.68;;;;;;;16.10;96.41;101732.44;5015094;28;96748;-30
2022/10/17 07:11:15;;;;;;;16.27;5.13;;;;;;;16.11;96.90;101727.81;5013208;28;101009;-31
2022/10/17 07:13:41;;;;;;;16.33;5.20;;;;;;;16.08;96.34;101737.13;5013528;28;100751;-31
2022/10/17 07:16:07;;;;;;;15.50;5.97;;;;;;;16.10;96.12;101765.22;5013048;28;96903;-30
2022/10/17 07:18:33;;;;;;;17.77;5.72;;;;;;;16.08;96.27;101771.78;5013285;28;96618;-30
2022/10/17 07:20:59;;;;;;;10.20;4.88;;;;;;;16.08;96.34;101783.59;5012490;28;101483;-31
2022/10/17 07:23:24;;;;;;;16.08;5.22;;;;;;;16.06;96.51;101798.34;5014415;28;99428;-30
2022/10/17 07:25:50;;;;;;;13.70;5.60;;;;;;;16.06;96.25;101809.28;5014845;28;96695;-30
2022/10/17 07:28:16;;;;;;;16.05;5.32;;;;;;;16.04;97.59;101828.53;5015162;28;96842;-33
2022/10/17 07:30:41;;;;;;;14.63;5.97;;;;;;;16.06;97.01;101845.69;5012698;28;101217;-30
2022/10/17 07:33:06;;;;;;;18.58;6.72;;;;;;;16.06;97.28;101851.13;5014048;28;99458;-31
2022/10/17 07:35:32;;;;;;;16.10;5.38;;;;;;;16.06;97.33;101847.53;5014670;28;96460;-30
2022/10/17 07:37:57;;;;;;;15.02;5.85;;;;;;;16.04;98.51;101849.50;5015009;28;96772;-29
2022/10/17 07:40:23;;;;;;;14.40;6.00;;;;;;;16.02;98.19;101857.81;5014077;28;98991;-30
2022/10/17 07:42:48;;;;;;;15.48;5.45;;;;;;;16.02;98.59;101871.50;5013975;28;99147;-30
2022/10/17 07:45:14;;;;;;;15.77;5.57;;;;;;;16.02;98.26;101876.97;5013294;28;96891;-31
2022/10/17 07:47:40;;;;;;;12.65;5.28;;;;;;;16.00;98.47;101886.25;5015314;28;96971;-30
2022/10/17 07:50:06;;;;;;;11.80;5.45;;;;;;;16.01;99.18;101879.78;5016241;28;101164;-30
2022/10/17 07:52:32;;;;;;;13.73;5.30;;;;;;;16.03;99.10;101881.44;5016143;28;101897;-30
2022/10/17 07:54:58;;;;;;;12.77;5.53;;;;;;;16.01;100.00;101886.13;5017825;28;97099;-30
2022/10/17 07:57:23;;;;;;;18.95;6.45;;;;;;;16.03;99.83;101881.44;5017960;28;96826;-31
2022/10/17 07:59:50;;;;;;;13.75;5.32;;;;;;;16.04;99.76;101871.38;5017417;28;97865;-31
2022/10/17 08:02:26;;;;;;;15.43;5.35;;;;;;;16.06;99.06;101878.47;5017855;28;97726;-30
2022/10/17 08:04:52;;;;;;;17.08;5.63;;;;;;;16.06;99.36;101883.94;5016500;28;96726;-30
2022/10/17 08:07:18;;;;;;;16.33;5.65;;;;;;;16.06;99.46;101889.41;5016370;28;96973;-30
2022/10/17 08:09:44;;;;;;;15.07;5.45;;;;;;;16.10;99.29;101887.34;5015470;28;98998;-31
2022/10/17 08:12:10;;;;;;;12.40;5.00;;;;;;;16.08;99.22;101886.59;5015854;28;100923;-33
2022/10/17 08:14:38;;;;;;;11.25;5.18;;;;;;;16.08;99.56;101887.44;5017063;28;96560;-29
2022/10/17 08:17:03;;;;;;;16.80;5.75;;;;;;;16.09;100.00;101888.34;5016096;28;96836;-31
2022/10/17 08:19:28;;;;;;;15.90;4.93;;;;;;;16.11;100.00;101873.59;5017517;28;97338;-30
2022/10/17 08:21:53;;;;;;;12.48;5.28;;;;;;;16.14;99.77;101880.72;5016796;28;103752;-31
2022/10/17 08:24:19;;;;;;;17.13;5.88;;;;;;;16.16;99.93;101888.78;5017112;28;103045;-30
2022/10/17 08:26:45;;;;;;;19.55;5.35;;;;;;;16.14;100.00;101878.84;5017780;28;96827;-32
2022/10/17 08:29:14;;;;;;;15.55;5.57;;;;;;;16.16;100.00;101864.19;5016903;28;97483;-30
2022/10/17 08:31:39;;;;;;;13.05;5.40;;;;;;;16.16;100.00;101854.16;5016837;28;97900;-31
2022/10/17 08:34:05;;;;;;;16.95;5.65;;;;;;;16.20;100.00;101863.00;5016726;28;96714;-29
2022/10/17 08:36:30;;;;;;;17.88;5.78;;;;;;;16.19;99.81;101847.59;5017177;28;96884;-30
2022/10/17 08:38:56;;;;;;;14.40;5.88;;;;;;;16.19;99.66;101829.31;5016525;28;108720;-31
2022/10/17 08:41:59;;;;;;;15.00;5.40;;;;;;;16.23;99.69;101849.09;5016908;28;97632;-30
2022/10/17 08:44:43;;;;;;;15.02;5.38;;;;;;;16.23;99.69;101849.09;5017009;28;96633;-31
2022/10/17 08:47:13;;;;;;;14.80;6.00;;;;;;;16.23;99.29;101846.38;5017112;28;96558;-31
2022/10/17 08:49:47;;;;;;;13.30;5.07;;;;;;;16.23;99.22;101851.84;5032320;27;101019;-31
2022/10/17 08:52:39;;;;;;;13.32;5.32;;;;;;;16.25;99.70;101869.03;5032630;28;100986;-30
2022/10/17 08:55:33;;;;;;;15.02;5.65;;;;;;;16.23;100.00;101882.81;4980252;28;96953;-31
2022/10/17 08:57:58;;;;;;;17.02;5.47;;;;;;;16.20;99.94;101891.19;5014190;28;96921;-30
2022/10/17 09:00:27;;;;;;;10.60;5.38;;;;;;;16.21;100.00;101900.28;5016313;28;98134;-30
2022/10/17 09:03:13;;;;;;;17.25;6.03;;;;;;;16.23;100.00;101899.22;5015034;28;100767;-31
2022/10/17 09:05:55;;;;;;;20.25;5.75;;;;;;;16.24;100.00;101898.22;5015448;28;96602;-30
2022/10/17 09:08:30;;;;;;;12.57;5.28;;;;;;;16.25;100.00;101888.16;5015604;28;96868;-30
2022/10/17 09:11:16;;;;;;;16.90;6.40;;;;;;;16.29;100.00;101889.72;5016526;28;98091;-31
2022/10/17 09:14:03;;;;;;;16.85;5.50;;;;;;;16.30;100.00;101875.03;5001621;28;97332;-30
2022/10/17 09:16:36;;;;;;;20.55;6.80;;;;;;;16.33;100.00;101894.00;5016820;28;96538;-30
2022/10/17 09:19:23;;;;;;;14.98;5.82;;;;;;;16.34;100.00;101887.53;5015393;28;96861;-30
2022/10/17 09:21:53;;;;;;;17.52;6.03;;;;;;;16.35;100.00;101876.50;5014807;28;100766;-30
2022/10/17 09:24:34;;;;;;;13.32;5.40;;;;;;;16.36;100.00;101888.28;5015217;28;100835;-29
2022/10/17 09:27:01;;;;;;;17.00;6.30;;;;;;;16.40;100.00;101892.59;5014582;28;96793;-31
2022/10/17 09:29:27;;;;;;;19.30;7.10;;;;;;;16.40;100.00;101894.41;5016213;28;96861;-30
2022/10/17 09:32:17;;;;;;;17.90;6.97;;;;;;;16.42;100.00;101901.56;5016056;28;99132;-30
2022/10/17 09:34:42;;;;;;;14.95;6.18;;;;;;;16.45;100.00;101916.88;5016274;28;97442;-30
2022/10/17 09:37:16;;;;;;;15.15;6.05;;;;;;;16.43;100.00;101918.84;5015218;28;96787;-30
2022/10/17 09:39:42;;;;;;;16.77;6.78;;;;;;;16.42;100.00;101937.13;5014934;28;96701;-30
2022/10/17 09:42:13;;;;;;;17.25;7.05;;;;;;;16.43;100.00;101955.25;5016251;28;97585;-30
2022/10/17 09:45:14;;;;;;;16.02;5.75;;;;;;;16.42;100.00;101974.50;5014801;28;100892;-32
2022/10/17 09:47:46;;;;;;;14.50;5.50;;;;;;;16.40;100.00;101963.69;5011319;28;96899;-29
2022/10/17 09:50:19;;;;;;;11.52;5.35;;;;;;;16.37;100.00;101958.41;5014686;28;96693;-31
2022/10/17 09:52:47;;;;;;;20.70;5.10;;;;;;;16.38;100.00;101971.09;5013792;28;101165;-30
2022/10/17 09:55:43;;;;;;;14.70;5.63;;;;;;;16.39;100.00;101972.84;5014190;28;100898;-30
2022/10/17 09:58:10;;;;;;;15.05;5.85;;;;;;;16.38;100.00;101986.66;5015879;28;96579;-30
2022/10/17 10:00:40;;;;;;;15.48;4.97;;;;;;;16.37;100.00;101993.94;5014404;28;96916;-31
2022/10/17 10:03:11;;;;;;;15.45;5.70;;;;;;;16.38;100.00;102000.31;5014173;28;101275;-30
2022/10/17 10:05:37;;;;;;;11.90;5.07;;;;;;;16.33;100.00;101998.75;5015398;28;98876;-30
2022/10/17 10:08:10;;;;;;;12.93;5.32;;;;;;;16.33;100.00;101995.16;5014464;28;96868;-32
2022/10/17 10:10:35;;;;;;;11.80;4.43;;;;;;;16.35;100.00;102001.38;5013616;28;96893;-30
2022/10/17 10:13:14;;;;;;;10.60;5.18;;;;;;;16.35;100.00;102002.28;5015122;28;99290;-30
2022/10/17 10:15:44;;;;;;;10.98;5.43;;;;;;;16.34;100.00;102011.44;5013887;28;101174;-30
2022/10/17 10:18:25;;;;;;;14.73;5.88;;;;;;;16.35;100.00;102012.31;5013875;28;96737;-30
2022/10/17 10:21:10;;;;;;;15.73;5.72;;;;;;;16.35;100.00;102017.78;5015591;28;96913;-30
2022/10/17 10:23:38;;;;;;;15.95;5.00;;;;;;;16.32;100.00;102027.06;5013768;28;101056;-30
2022/10/17 10:26:17;;;;;;;14.27;5.25;;;;;;;16.32;100.00;102034.41;5013792;28;101335;-30
2022/10/17 10:28:50;;;;;;;16.17;5.50;;;;;;;16.30;100.00;102031.78;5015833;28;96565;-30
2022/10/17 10:31:25;;;;;;;11.60;4.38;;;;;;;16.29;100.00;102034.63;5014278;28;96733;-31
2022/10/17 10:33:51;;;;;;;9.82;4.57;;;;;;;16.27;100.00;102031.97;5013593;28;100767;-30
2022/10/17 10:36:16;;;;;;;11.63;4.95;;;;;;;16.29;100.00;102045.56;5015641;28;97878;-29
2022/10/17 10:38:52;;;;;;;10.07;4.15;;;;;;;16.29;100.00;102042.81;5015485;28;96663;-31
2022/10/17 10:41:18;;;;;;;12.57;5.00;;;;;;;16.25;100.00;102044.88;5030715;28;96759;-30
2022/10/17 10:43:50;;;;;;;9.27;3.85;;;;;;;16.27;100.00;102053.84;5014326;28;99373;-30
2022/10/17 10:46:21;;;;;;;10.30;4.05;;;;;;;16.30;100.00;102059.13;5013163;28;100948;-29
2022/10/17 10:49:00;;;;;;;12.90;5.05;;;;;;;16.31;100.00;102060.88;5013259;28;96797;-31
2022/10/17 10:51:31;;;;;;;9.25;4.93;;;;;;;16.31;100.00;102062.75;5013730;28;96874;-30
2022/10/17 10:54:02;;;;;;;12.95;5.45;;;;;;;16.31;100.00;102068.22;5014799;28;99010;-30
2022/10/17 10:56:36;;;;;;;10.55;5.00;;;;;;;16.30;100.00;102064.59;5014713;28;99260;-30
2022/10/17 10:59:07;;;;;;;11.30;4.68;;;;;;;16.35;100.00;102064.28;5011123;28;96743;-29
2022/10/17 11:01:53;;;;;;;10.05;4.05;;;;;;;16.34;100.00;102066.13;5012899;28;96881;-31
2022/10/17 11:04:37;;;;;;;10.90;4.38;;;;;;;16.36;100.00;102068.78;5012590;28;97403;-31
2022/10/17 11:07:11;;;;;;;13.05;4.53;;;;;;;16.32;100.00;102089.09;5011940;28;99105;-30
2022/10/17 11:10:07;;;;;;;13.32;3.88;;;;;;;16.25;100.00;102080.41;5010358;28;96946;-30
2022/10/17 11:12:54;;;;;;;9.50;4.10;;;;;;;16.27;100.00;102075.72;5010894;28;96957;-30
2022/10/17 11:15:56;;;;;;;9.23;3.90;;;;;;;16.28;100.00;102093.00;5011238;28;99008;-31
2022/10/17 11:18:49;;;;;;;9.35;3.35;;;;;;;16.25;100.00;102099.56;5012145;28;97421;-29
2022/10/17 11:21:18;;;;;;;6.75;3.60;;;;;;;16.26;100.00;102098.59;5027297;28;96691;-30
2022/10/17 11:23:53;;;;;;;11.15;3.47;;;;;;;16.27;100.00;102105.81;5010654;28;96744;-30
2022/10/17 11:26:25;;;;;;;7.20;3.80;;;;;;;16.27;100.00;102094.00;5010616;28;101315;-30
2022/10/17 11:28:55;;;;;;;9.40;3.50;;;;;;;16.33;100.00;102104.53;5010978;28;100987;-31
2022/10/17 11:31:24;;;;;;;11.43;4.63;;;;;;;16.33;100.00;102104.53;5012046;28;96704;-31